Time;durP1;ratioP1;P1;durP2;ratioP2;P2;SDS_P1;SDS_P2;PMS_P1;PMS_P2;Temp;Humidity;BMP_temperature;BMP_pressure;BME280_temperature;BME280_humidity;BME280_pressure;Samples;Min_cycle;Max_cycle;Signal;HPM_P1;HPM_P2
2022/01/18 00:01:50;;;;;;;38.58;29.33;;;5.40;99.90;;;;;;4935118;28;20034;-60
2022/01/18 00:04:17;;;;;;;41.03;31.10;;;5.50;99.90;;;;;;4957499;29;20039;-60
2022/01/18 00:06:47;;;;;;;28.60;23.17;;;5.40;99.90;;;;;;4953801;28;20026;-60
2022/01/18 00:09:13;;;;;;;24.20;20.27;;;5.50;99.90;;;;;;4954786;28;20031;-60
2022/01/18 00:11:50;;;;;;;21.38;18.95;;;5.40;99.90;;;;;;4953286;28;20222;-61
2022/01/18 00:14:25;;;;;;;33.40;25.95;;;5.20;99.90;;;;;;4953142;29;20440;-60
2022/01/18 00:19:27;;;;;;;32.58;26.73;;;5.30;99.90;;;;;;4955525;28;20500;-61
2022/01/18 00:22:08;;;;;;;35.85;27.75;;;5.40;99.90;;;;;;4954812;29;20066;-60
2022/01/18 00:24:34;;;;;;;37.72;30.05;;;5.40;99.90;;;;;;4953040;29;20027;-60
2022/01/18 00:27:00;;;;;;;23.35;20.00;;;5.40;99.90;;;;;;4954487;29;20062;-60
2022/01/18 00:29:27;;;;;;;28.75;24.80;;;5.40;99.90;;;;;;4952953;29;20066;-61
2022/01/18 00:32:10;;;;;;;33.20;27.40;;;5.40;99.90;;;;;;4953132;29;20063;-60
2022/01/18 00:34:39;;;;;;;31.27;25.65;;;5.40;99.90;;;;;;4955232;28;20027;-60
2022/01/18 00:39:34;;;;;;;21.42;19.13;;;5.50;99.90;;;;;;4952698;28;20457;-59
2022/01/18 00:41:59;;;;;;;21.58;18.73;;;5.40;99.90;;;;;;4952505;29;20023;-60
2022/01/18 00:44:25;;;;;;;25.25;22.30;;;5.40;99.90;;;;;;4952591;29;20039;-60
2022/01/18 00:46:51;;;;;;;21.20;19.00;;;5.40;99.90;;;;;;4954015;29;20027;-59
2022/01/18 00:49:18;;;;;;;29.85;25.00;;;5.40;99.90;;;;;;4956700;29;20134;-59
2022/01/18 00:51:51;;;;;;;28.38;23.23;;;5.50;99.90;;;;;;4952602;28;20617;-59
2022/01/18 00:54:22;;;;;;;34.08;27.00;;;5.40;99.90;;;;;;4952400;29;20030;-60
2022/01/18 00:56:51;;;;;;;22.98;20.00;;;5.50;99.90;;;;;;4952130;28;20066;-60
2022/01/18 00:59:17;;;;;;;22.08;19.73;;;5.40;99.90;;;;;;4952893;29;20042;-60
2022/01/18 01:01:43;;;;;;;18.92;16.73;;;5.50;99.90;;;;;;4953723;28;20378;-60
2022/01/18 01:04:09;;;;;;;21.42;17.70;;;5.40;99.90;;;;;;4955406;29;20071;-59
2022/01/18 01:06:36;;;;;;;18.42;16.52;;;5.40;99.90;;;;;;4953937;29;20059;-59
2022/01/18 01:09:04;;;;;;;22.52;20.08;;;5.40;99.90;;;;;;4952041;28;20035;-58
2022/01/18 01:11:32;;;;;;;25.83;22.50;;;5.50;99.90;;;;;;4951965;29;20035;-60
2022/01/18 01:14:01;;;;;;;35.47;31.50;;;5.70;99.90;;;;;;4951707;28;20023;-60
2022/01/18 01:43:21;;;;;;;20.15;18.05;;;5.40;99.90;;;;;;4953514;29;20110;-60
2022/01/18 01:45:49;;;;;;;26.60;23.80;;;5.50;99.90;;;;;;4953680;29;20043;-60
2022/01/18 01:48:17;;;;;;;25.80;23.15;;;5.50;99.90;;;;;;4951548;29;20118;-61
2022/01/18 01:53:08;;;;;;;19.33;17.30;;;5.60;99.90;;;;;;4951802;29;20107;-60
2022/01/18 01:55:34;;;;;;;20.30;17.83;;;5.60;99.90;;;;;;4953503;28;20106;-60
2022/01/18 01:58:00;;;;;;;18.58;16.58;;;5.60;99.90;;;;;;4953205;29;20114;-60
2022/01/18 02:00:25;;;;;;;19.42;17.42;;;5.80;99.90;;;;;;4958190;28;20043;-60
2022/01/18 02:02:51;;;;;;;19.20;17.25;;;5.60;99.90;;;;;;4944095;29;20034;-60
2022/01/18 02:05:17;;;;;;;20.50;16.90;;;5.60;99.90;;;;;;4952758;29;20472;-60
2022/01/18 02:07:43;;;;;;;38.85;34.67;;;5.50;99.90;;;;;;4952584;28;20038;-60
2022/01/18 02:10:10;;;;;;;24.42;21.23;;;5.50;99.90;;;;;;4954145;29;20035;-60
2022/01/18 02:12:37;;;;;;;20.95;18.85;;;5.50;99.90;;;;;;4951191;28;20168;-59
2022/01/18 02:15:12;;;;;;;18.50;16.50;;;5.30;99.90;;;;;;4950948;28;20040;-60
2022/01/18 02:23:19;;;;;;;20.85;18.55;;;5.50;99.90;;;;;;4952557;29;20038;-60
2022/01/18 02:25:45;;;;;;;19.98;17.88;;;5.50;99.90;;;;;;4951059;28;20161;-59
2022/01/18 02:28:11;;;;;;;19.60;17.60;;;5.40;99.90;;;;;;4954010;29;20053;-60
2022/01/18 02:30:38;;;;;;;18.83;16.77;;;5.40;99.90;;;;;;4951037;28;20046;-60
2022/01/18 02:33:04;;;;;;;19.85;17.20;;;5.40;99.90;;;;;;4950605;29;20058;-60
2022/01/18 02:35:34;;;;;;;18.33;16.42;;;5.30;99.90;;;;;;4950897;29;20023;-59
2022/01/18 02:38:00;;;;;;;18.75;16.65;;;5.30;99.90;;;;;;4949172;29;20091;-60
2022/01/18 02:40:26;;;;;;;19.67;17.67;;;5.30;99.90;;;;;;4953382;28;20073;-60
2022/01/18 02:42:58;;;;;;;21.08;18.88;;;5.20;99.90;;;;;;4951712;29;20531;-60
2022/01/18 02:45:24;;;;;;;21.35;19.10;;;5.00;99.90;;;;;;4951854;28;20050;-60
2022/01/18 02:47:50;;;;;;;20.50;18.50;;;5.30;99.90;;;;;;4950738;29;20023;-60
2022/01/18 02:50:18;;;;;;;20.02;18.02;;;5.40;99.90;;;;;;4950412;29;20091;-60
2022/01/18 02:52:43;;;;;;;20.67;18.58;;;5.30;99.90;;;;;;4951395;28;20073;-60
2022/01/18 02:55:09;;;;;;;20.80;18.25;;;5.30;99.90;;;;;;4953363;29;20055;-61
2022/01/18 02:57:55;;;;;;;20.10;18.00;;;5.30;99.90;;;;;;4950351;29;20074;-60
2022/01/18 03:00:31;;;;;;;21.02;18.92;;;5.30;99.90;;;;;;4950526;28;20411;-60
2022/01/18 03:03:13;;;;;;;19.98;18.00;;;5.20;99.90;;;;;;4951551;28;20455;-60
2022/01/18 03:05:43;;;;;;;20.40;18.40;;;5.20;99.90;;;;;;4950065;28;20041;-60
2022/01/18 03:08:11;;;;;;;19.77;17.73;;;5.20;99.90;;;;;;4950201;28;20042;-60
2022/01/18 03:10:38;;;;;;;19.23;17.35;;;5.20;99.90;;;;;;4952482;28;20493;-59
2022/01/18 03:13:05;;;;;;;20.70;18.48;;;5.20;99.90;;;;;;4952275;29;20023;-60
2022/01/18 03:15:32;;;;;;;20.60;18.52;;;5.20;99.90;;;;;;4949857;29;20117;-60
2022/01/18 03:17:58;;;;;;;26.85;24.05;;;5.20;99.90;;;;;;4949682;28;20034;-60
2022/01/18 03:20:25;;;;;;;19.85;17.75;;;5.20;99.90;;;;;;4950169;29;20400;-59
2022/01/18 03:22:51;;;;;;;20.52;18.42;;;5.10;99.90;;;;;;4936244;29;20024;-60
2022/01/18 03:25:29;;;;;;;21.50;19.20;;;5.00;99.90;;;;;;4953968;29;20031;-60
2022/01/18 03:28:04;;;;;;;22.17;19.80;;;4.90;99.90;;;;;;4952903;29;20039;-59
2022/01/18 03:30:36;;;;;;;21.67;19.25;;;5.10;99.90;;;;;;4950252;28;20504;-60
2022/01/18 03:33:04;;;;;;;24.13;21.73;;;5.00;99.90;;;;;;4949623;29;20469;-60
2022/01/18 03:35:29;;;;;;;25.45;21.60;;;4.80;99.90;;;;;;4949699;29;20042;-60
2022/01/18 03:37:55;;;;;;;23.58;20.98;;;4.80;99.90;;;;;;4949332;28;20031;-60
2022/01/18 03:40:21;;;;;;;22.77;20.48;;;4.80;99.90;;;;;;4953871;28;20564;-60
2022/01/18 03:42:48;;;;;;;22.80;20.35;;;4.80;99.90;;;;;;4950206;29;20031;-60
2022/01/18 03:45:17;;;;;;;22.48;20.17;;;4.70;99.90;;;;;;4949593;28;20040;-60
2022/01/18 03:47:44;;;;;;;22.17;19.88;;;4.80;99.90;;;;;;4949548;29;20020;-60
2022/01/18 03:50:12;;;;;;;23.38;20.98;;;4.70;99.90;;;;;;4949505;28;20414;-60
2022/01/18 03:52:39;;;;;;;28.08;23.65;;;4.70;99.90;;;;;;4951879;28;20031;-60
2022/01/18 03:55:06;;;;;;;27.08;23.67;;;4.60;99.90;;;;;;4952039;29;20089;-60
2022/01/18 03:57:32;;;;;;;28.40;24.20;;;4.50;99.90;;;;;;4949332;28;20031;-60
2022/01/18 03:59:58;;;;;;;27.63;24.42;;;4.50;99.90;;;;;;4949655;28;20035;-60
2022/01/18 04:02:23;;;;;;;27.33;23.42;;;4.50;99.90;;;;;;4951311;29;20027;-59
2022/01/18 04:04:49;;;;;;;27.23;24.20;;;4.50;99.90;;;;;;4934531;29;20382;-61
2022/01/18 04:07:15;;;;;;;27.35;23.95;;;4.50;99.90;;;;;;4953323;29;20498;-59
2022/01/18 04:09:41;;;;;;;30.02;23.83;;;4.60;99.90;;;;;;4949305;29;20504;-59
2022/01/18 04:12:07;;;;;;;30.30;23.77;;;4.50;99.90;;;;;;4958703;28;20048;-58
2022/01/18 04:14:33;;;;;;;26.10;22.70;;;4.70;99.90;;;;;;4940135;29;20061;-59
2022/01/18 04:27:59;;;;;;;27.80;23.85;;;4.20;99.90;;;;;;4949801;29;20046;-59
2022/01/18 04:30:24;;;;;;;28.40;25.30;;;4.10;99.90;;;;;;4949367;28;20054;-59
2022/01/18 04:32:50;;;;;;;27.40;23.48;;;4.30;99.90;;;;;;4949158;29;20031;-59
2022/01/18 04:35:16;;;;;;;28.17;25.08;;;4.30;99.90;;;;;;4947664;29;20272;-58
2022/01/18 04:37:41;;;;;;;28.10;25.00;;;4.40;99.90;;;;;;4950549;29;20043;-61
2022/01/18 04:40:13;;;;;;;26.60;23.65;;;4.60;99.90;;;;;;4952309;29;20147;-59
2022/01/18 04:50:36;;;;;;;;;;;4.50;99.90;;;;;;4952368;29;20106;-60
2022/01/18 04:53:01;;;;;;;26.05;22.48;;;4.60;99.90;;;;;;4952799;29;19915;-60
2022/01/18 04:55:31;;;;;;;26.65;22.95;;;4.60;99.90;;;;;;4955303;29;20032;-60
2022/01/18 04:57:57;;;;;;;27.45;23.27;;;4.50;99.90;;;;;;4956053;29;20035;-59
2022/01/18 05:00:24;;;;;;;28.50;23.90;;;4.60;99.90;;;;;;4953914;29;20476;-60
2022/01/18 05:02:50;;;;;;;26.08;23.27;;;4.60;99.90;;;;;;4951978;29;20023;-60
2022/01/18 05:05:30;;;;;;;27.40;23.80;;;4.50;99.90;;;;;;4952880;29;20054;-60
2022/01/18 05:08:02;;;;;;;29.75;25.00;;;4.60;99.90;;;;;;4938007;28;20031;-60
2022/01/18 05:10:30;;;;;;;26.77;23.45;;;4.50;99.90;;;;;;4954914;28;20392;-59
2022/01/18 05:12:58;;;;;;;28.10;24.33;;;4.50;99.90;;;;;;4955365;29;20047;-60
2022/01/18 05:23:24;;;;;;;30.73;25.42;;;4.30;99.90;;;;;;4961043;28;20403;-59
2022/01/18 05:25:50;;;;;;;26.45;23.48;;;4.40;99.90;;;;;;4956541;28;20046;-60
2022/01/18 05:28:16;;;;;;;29.70;25.75;;;4.40;99.90;;;;;;4973331;28;20141;-60
2022/01/18 05:30:42;;;;;;;28.35;24.52;;;4.40;99.90;;;;;;4971720;28;20578;-59
2022/01/18 05:33:08;;;;;;;29.38;24.85;;;4.20;99.90;;;;;;4971369;28;20037;-60
2022/01/18 05:35:34;;;;;;;25.33;22.70;;;4.30;99.90;;;;;;4971460;28;20037;-59
2022/01/18 05:38:00;;;;;;;25.67;23.02;;;4.30;99.90;;;;;;4971825;28;20570;-60
2022/01/18 05:40:27;;;;;;;26.23;23.20;;;4.40;99.90;;;;;;4971960;28;20035;-60
2022/01/18 05:42:53;;;;;;;29.35;24.27;;;4.30;99.90;;;;;;4972028;28;20069;-60
2022/01/18 05:45:19;;;;;;;34.40;27.27;;;4.30;99.90;;;;;;4971420;28;20047;-59
2022/01/18 05:47:45;;;;;;;40.08;28.73;;;4.00;99.90;;;;;;4971181;28;20134;-60
2022/01/18 05:50:12;;;;;;;37.35;30.52;;;4.10;99.90;;;;;;4971267;28;20053;-60
2022/01/18 05:52:39;;;;;;;31.48;25.77;;;4.10;99.90;;;;;;4971697;28;20042;-60
2022/01/18 05:55:05;;;;;;;33.58;27.90;;;4.00;99.90;;;;;;4972522;28;20027;-60
2022/01/18 05:57:31;;;;;;;37.55;29.60;;;4.00;99.90;;;;;;4961691;28;20047;-60
2022/01/18 06:00:05;;;;;;;32.38;25.83;;;4.00;99.90;;;;;;4952602;28;20038;-60
2022/01/18 06:07:52;;;;;;;41.72;29.70;;;3.80;99.90;;;;;;4936652;29;20553;-60
2022/01/18 06:10:18;;;;;;;49.28;30.05;;;3.90;99.90;;;;;;4955182;28;20031;-59
2022/01/18 06:12:44;;;;;;;36.90;29.23;;;3.90;99.90;;;;;;4951367;28;20438;-60
2022/01/18 06:15:10;;;;;;;38.40;29.00;;;3.90;99.90;;;;;;4950777;28;20039;-60
2022/01/18 06:17:38;;;;;;;42.88;30.63;;;4.00;99.90;;;;;;4952186;28;20090;-60
2022/01/18 06:20:05;;;;;;;55.63;29.65;;;3.90;99.90;;;;;;4951257;28;20394;-60
2022/01/18 06:22:31;;;;;;;45.10;30.55;;;3.70;99.90;;;;;;4953260;28;20031;-60
2022/01/18 06:24:56;;;;;;;52.17;32.17;;;3.80;99.90;;;;;;4952504;28;20035;-60
2022/01/18 06:27:22;;;;;;;100.78;80.47;;;4.00;99.90;;;;;;4951186;29;20027;-60
2022/01/18 06:29:48;;;;;;;54.70;39.95;;;3.70;99.90;;;;;;4950398;29;20027;-59
2022/01/18 06:32:14;;;;;;;52.22;37.15;;;3.80;99.90;;;;;;4950708;29;20519;-60
2022/01/18 06:34:39;;;;;;;39.50;27.73;;;4.00;99.90;;;;;;4952874;29;20488;-60
2022/01/18 06:37:06;;;;;;;40.83;27.38;;;4.10;99.90;;;;;;4952971;29;20086;-60
2022/01/18 06:39:33;;;;;;;42.47;26.55;;;4.00;99.90;;;;;;4952029;29;20496;-60
2022/01/18 06:41:58;;;;;;;46.80;25.52;;;3.90;99.90;;;;;;4950574;29;20030;-59
2022/01/18 06:44:25;;;;;;;40.90;27.55;;;3.90;99.90;;;;;;4950551;29;20051;-60
2022/01/18 06:46:51;;;;;;;59.42;28.55;;;3.90;99.90;;;;;;4935581;29;20155;-60
2022/01/18 06:49:17;;;;;;;58.25;28.83;;;3.90;99.90;;;;;;4954255;29;20082;-60
2022/01/18 06:51:43;;;;;;;57.05;42.45;;;3.80;99.90;;;;;;4950403;28;20042;-60
2022/01/18 06:54:14;;;;;;;52.28;38.63;;;3.90;99.90;;;;;;4950363;29;20027;-60
2022/01/18 06:56:44;;;;;;;106.40;29.85;;;3.70;99.90;;;;;;4951902;29;20027;-60
2022/01/18 06:59:10;;;;;;;237.20;34.10;;;3.50;99.90;;;;;;4950653;28;20432;-60
2022/01/18 07:01:35;;;;;;;126.60;32.15;;;3.30;99.90;;;;;;4952744;28;20027;-60
2022/01/18 07:04:01;;;;;;;72.10;32.63;;;3.40;99.90;;;;;;4951898;29;20507;-59
2022/01/18 07:06:28;;;;;;;115.28;38.72;;;3.40;99.90;;;;;;4950173;28;20122;-59
2022/01/18 07:08:54;;;;;;;74.32;35.60;;;3.40;99.90;;;;;;4950474;28;20082;-59
2022/01/18 07:11:20;;;;;;;52.67;31.10;;;3.50;99.90;;;;;;4949592;28;20028;-58
2022/01/18 07:13:46;;;;;;;60.80;31.13;;;3.80;99.90;;;;;;4965511;28;20036;-59
2022/01/18 07:16:11;;;;;;;52.20;28.63;;;3.60;99.90;;;;;;4953330;29;20027;-60
2022/01/18 07:18:37;;;;;;;46.05;28.23;;;3.60;99.90;;;;;;4951342;29;20086;-59
2022/01/18 07:21:03;;;;;;;71.60;31.55;;;3.60;99.90;;;;;;4949949;29;20040;-59
2022/01/18 07:23:29;;;;;;;75.90;32.72;;;3.60;99.90;;;;;;4964760;28;20050;-59
2022/01/18 07:25:54;;;;;;;113.65;30.83;;;3.70;99.90;;;;;;4949938;29;20508;-59
2022/01/18 07:28:20;;;;;;;100.65;34.70;;;3.60;99.90;;;;;;4953681;28;20027;-59
2022/01/18 07:30:47;;;;;;;106.05;30.73;;;3.60;99.90;;;;;;4950163;28;20054;-60
2022/01/18 07:33:13;;;;;;;319.17;33.35;;;3.70;99.90;;;;;;4949655;28;20078;-59
2022/01/18 07:35:40;;;;;;;64.20;40.25;;;3.40;99.90;;;;;;4951373;28;20456;-60
2022/01/18 07:38:06;;;;;;;193.85;119.72;;;3.50;99.90;;;;;;4949881;28;20572;-60
2022/01/18 07:40:33;;;;;;;102.30;35.72;;;3.60;99.90;;;;;;4952263;28;20122;-60
2022/01/18 07:43:01;;;;;;;204.63;29.88;;;3.70;99.90;;;;;;4950858;28;20035;-60
2022/01/18 07:45:30;;;;;;;163.52;35.53;;;3.30;99.90;;;;;;4949557;28;20051;-59
2022/01/18 07:47:56;;;;;;;188.63;30.23;;;3.40;99.90;;;;;;4950046;28;20472;-60
2022/01/18 07:50:22;;;;;;;192.80;35.28;;;3.40;99.90;;;;;;4949641;29;20039;-59
2022/01/18 07:52:49;;;;;;;280.05;174.60;;;3.30;99.90;;;;;;4965376;28;20047;-58
2022/01/18 07:55:15;;;;;;;62.15;31.23;;;3.50;99.90;;;;;;4952904;29;20034;-59
2022/01/18 07:57:43;;;;;;;54.75;25.48;;;3.70;99.90;;;;;;4950622;29;20489;-59
2022/01/18 08:00:15;;;;;;;232.57;44.55;;;3.90;99.90;;;;;;4942619;28;20405;-59
2022/01/18 08:02:42;;;;;;;173.35;38.65;;;3.70;99.90;;;;;;4940740;29;20027;-59
2022/01/18 08:05:10;;;;;;;97.20;26.25;;;3.60;99.90;;;;;;4949624;28;20032;-59
2022/01/18 08:07:36;;;;;;;77.05;27.00;;;3.70;99.90;;;;;;4952024;28;20077;-59
2022/01/18 08:10:04;;;;;;;94.97;27.73;;;3.80;99.90;;;;;;4950931;28;20137;-59
2022/01/18 08:12:30;;;;;;;219.32;42.40;;;3.70;99.90;;;;;;4949081;29;20050;-58
2022/01/18 08:15:02;;;;;;;81.22;34.85;;;3.60;99.90;;;;;;4949318;29;20066;-59
2022/01/18 08:17:28;;;;;;;50.65;28.52;;;3.60;99.90;;;;;;4949132;29;20019;-58
2022/01/18 08:19:54;;;;;;;67.50;27.40;;;3.60;99.90;;;;;;4947929;28;20051;-59
2022/01/18 08:22:19;;;;;;;154.25;27.98;;;3.60;99.90;;;;;;4952221;29;20069;-59
2022/01/18 08:24:45;;;;;;;215.07;27.15;;;3.50;99.90;;;;;;4950926;28;20035;-58
2022/01/18 08:27:11;;;;;;;309.23;30.77;;;3.40;99.90;;;;;;4952700;28;20027;-59
2022/01/18 08:29:37;;;;;;;93.53;28.80;;;3.20;99.90;;;;;;4952849;29;20062;-59
2022/01/18 08:32:05;;;;;;;119.68;34.80;;;3.40;99.90;;;;;;4952928;28;20119;-59
2022/01/18 08:34:31;;;;;;;448.52;33.80;;;3.30;99.90;;;;;;4955018;28;20030;-58
2022/01/18 08:36:57;;;;;;;118.43;27.60;;;3.00;99.90;;;;;;4954699;29;20094;-58
2022/01/18 08:39:22;;;;;;;91.28;38.53;;;3.30;99.90;;;;;;4953331;29;20110;-58
2022/01/18 08:41:49;;;;;;;285.77;37.90;;;3.40;99.90;;;;;;4953857;29;20500;-58
2022/01/18 08:44:15;;;;;;;301.88;37.50;;;3.20;99.90;;;;;;4952542;28;20066;-58
2022/01/18 08:46:41;;;;;;;80.68;36.85;;;3.10;99.90;;;;;;4954218;28;20050;-59
2022/01/18 08:49:07;;;;;;;58.63;31.83;;;3.30;99.90;;;;;;4955700;29;20035;-58
2022/01/18 08:51:33;;;;;;;94.97;34.17;;;3.50;99.90;;;;;;4952331;29;20051;-58
2022/01/18 08:54:00;;;;;;;78.78;31.58;;;3.60;99.90;;;;;;4952662;28;20026;-59
2022/01/18 08:56:26;;;;;;;67.65;31.38;;;3.70;99.90;;;;;;4952362;29;20035;-59
2022/01/18 08:58:51;;;;;;;82.85;31.67;;;3.90;99.90;;;;;;4953228;29;20024;-59
2022/01/18 09:01:17;;;;;;;150.63;31.42;;;3.80;99.90;;;;;;4956318;29;20050;-59
2022/01/18 09:03:44;;;;;;;78.78;30.75;;;3.70;99.90;;;;;;4951698;29;20035;-59
2022/01/18 09:06:13;;;;;;;53.80;29.08;;;3.70;99.90;;;;;;4952287;28;20094;-59
2022/01/18 09:08:41;;;;;;;61.88;30.40;;;3.70;99.90;;;;;;4951630;28;20559;-59
2022/01/18 09:11:10;;;;;;;44.83;29.25;;;3.80;99.90;;;;;;4952334;29;20059;-59
2022/01/18 09:13:36;;;;;;;69.82;37.65;;;4.00;99.90;;;;;;4954019;28;20106;-58
2022/01/18 09:16:02;;;;;;;345.88;200.82;;;3.90;99.90;;;;;;4954017;29;20130;-59
2022/01/18 09:18:28;;;;;;;121.57;71.63;;;3.70;99.90;;;;;;4952276;29;20038;-59
2022/01/18 09:20:54;;;;;;;114.07;74.82;;;3.90;99.90;;;;;;4953391;28;20031;-59
2022/01/18 09:23:20;;;;;;;296.20;159.55;;;3.90;99.90;;;;;;4951966;29;20067;-59
2022/01/18 09:25:46;;;;;;;565.90;327.17;;;3.90;99.90;;;;;;4952640;29;20036;-59
2022/01/18 09:28:11;;;;;;;109.70;61.42;;;3.90;99.90;;;;;;4954077;29;20035;-60
2022/01/18 09:30:38;;;;;;;265.25;149.20;;;3.90;99.90;;;;;;4951872;29;20071;-59
2022/01/18 09:33:06;;;;;;;136.18;76.72;;;4.20;99.90;;;;;;4951655;29;20031;-58
2022/01/18 09:35:37;;;;;;;323.27;180.70;;;4.10;99.90;;;;;;4951614;28;20058;-59
2022/01/18 09:38:03;;;;;;;443.15;309.98;;;4.20;99.90;;;;;;4951959;28;20474;-59
2022/01/18 09:40:30;;;;;;;130.18;84.25;;;4.20;99.90;;;;;;4953936;28;20404;-58
2022/01/18 09:43:00;;;;;;;193.52;110.78;;;4.00;99.90;;;;;;4939835;28;20039;-60
2022/01/18 09:45:28;;;;;;;756.03;496.20;;;4.10;99.90;;;;;;4944553;29;20040;-59
2022/01/18 09:47:56;;;;;;;122.55;72.93;;;4.30;99.90;;;;;;4944211;29;20027;-59
2022/01/18 09:50:29;;;;;;;852.70;513.70;;;4.30;99.90;;;;;;4951760;29;20049;-59
2022/01/18 09:52:56;;;;;;;932.97;628.15;;;4.20;99.90;;;;;;4938003;29;20397;-59
2022/01/18 09:55:25;;;;;;;103.50;59.78;;;4.10;99.90;;;;;;4955126;28;20036;-58
2022/01/18 09:57:52;;;;;;;81.50;45.53;;;4.10;99.90;;;;;;4939936;29;20027;-60
2022/01/18 10:00:23;;;;;;;211.00;173.00;;;4.20;99.90;;;;;;4947916;28;20039;-60
2022/01/18 10:02:49;;;;;;;88.40;67.63;;;4.30;99.90;;;;;;4951238;29;20034;-59
2022/01/18 10:05:21;;;;;;;86.68;65.28;;;4.60;99.90;;;;;;4951310;28;20038;-59
2022/01/18 10:07:55;;;;;;;91.97;68.63;;;4.50;99.90;;;;;;4952045;28;20032;-59
2022/01/18 10:10:33;;;;;;;59.75;43.47;;;4.40;99.90;;;;;;4955250;29;20081;-58
2022/01/18 10:12:58;;;;;;;51.13;40.53;;;4.40;99.90;;;;;;4953952;29;20035;-58
2022/01/18 10:15:24;;;;;;;43.33;30.55;;;4.60;99.90;;;;;;4951069;28;20488;-59
2022/01/18 10:17:50;;;;;;;40.13;27.88;;;4.40;99.90;;;;;;4951085;29;20047;-60
2022/01/18 10:20:20;;;;;;;51.50;40.03;;;4.40;99.90;;;;;;4951195;29;20038;-59
2022/01/18 10:22:49;;;;;;;41.35;27.92;;;4.30;99.90;;;;;;4966104;28;20019;-59
2022/01/18 10:25:16;;;;;;;43.25;33.63;;;4.30;99.90;;;;;;4954459;29;20027;-60
2022/01/18 10:27:41;;;;;;;31.90;24.23;;;4.50;99.90;;;;;;4951081;29;20047;-59
2022/01/18 10:30:14;;;;;;;34.22;24.73;;;4.70;99.90;;;;;;4950798;28;20047;-60
2022/01/18 10:32:42;;;;;;;28.70;21.95;;;4.80;99.90;;;;;;4952186;28;20031;-60
2022/01/18 10:35:10;;;;;;;28.88;23.73;;;4.90;99.90;;;;;;4950874;29;20135;-60
2022/01/18 10:37:41;;;;;;;28.02;21.35;;;4.80;99.90;;;;;;4952509;28;20058;-60
2022/01/18 10:40:17;;;;;;;24.05;19.45;;;4.90;99.90;;;;;;4953198;29;20050;-60
2022/01/18 10:42:50;;;;;;;23.60;18.27;;;4.90;99.90;;;;;;4950289;28;20098;-58
2022/01/18 10:45:26;;;;;;;24.48;19.00;;;5.10;99.90;;;;;;4950664;29;20047;-58
2022/01/18 10:47:57;;;;;;;25.40;19.52;;;5.30;99.90;;;;;;4949277;28;20023;-59
2022/01/18 10:50:24;;;;;;;22.13;18.52;;;5.20;99.90;;;;;;4950679;29;20493;-58
2022/01/18 10:52:53;;;;;;;21.70;17.48;;;5.10;99.90;;;;;;4950523;28;20030;-59
2022/01/18 10:55:23;;;;;;;20.55;17.67;;;5.30;99.90;;;;;;4950108;29;20160;-58
2022/01/18 10:57:51;;;;;;;23.30;17.13;;;5.20;99.90;;;;;;4950745;29;20032;-59
2022/01/18 11:00:21;;;;;;;21.67;17.35;;;5.30;99.90;;;;;;4950102;29;20027;-58
2022/01/18 11:02:52;;;;;;;19.98;16.83;;;5.40;99.90;;;;;;4950359;29;20042;-58
2022/01/18 11:05:30;;;;;;;20.58;16.23;;;5.30;99.90;;;;;;4949296;29;20496;-59
2022/01/18 11:08:00;;;;;;;19.13;16.75;;;5.20;99.90;;;;;;4935479;29;20038;-59
2022/01/18 11:10:32;;;;;;;18.05;15.32;;;5.40;99.90;;;;;;4967102;28;20086;-60
2022/01/18 11:15:28;;;;;;;17.00;14.05;;;5.60;99.90;;;;;;4950046;28;20441;-61
2022/01/18 11:18:03;;;;;;;158.30;100.60;;;5.90;99.90;;;;;;4951105;29;20094;-58
2022/01/18 11:20:32;;;;;;;102.80;64.35;;;5.80;99.90;;;;;;4949516;29;20027;-59
2022/01/18 11:22:58;;;;;;;17.63;15.00;;;5.90;99.90;;;;;;4950168;29;20466;-58
2022/01/18 11:25:25;;;;;;;23.73;21.23;;;5.90;99.90;;;;;;4953285;28;20034;-58
2022/01/18 11:27:52;;;;;;;22.27;18.17;;;5.60;99.90;;;;;;4950624;29;20086;-58
2022/01/18 11:30:20;;;;;;;25.45;19.48;;;5.30;99.90;;;;;;4950028;29;20047;-59
2022/01/18 11:32:49;;;;;;;32.42;25.38;;;5.90;99.90;;;;;;4949492;29;20027;-58
2022/01/18 11:35:19;;;;;;;23.65;16.98;;;6.00;99.90;;;;;;4949599;28;20497;-59
2022/01/18 11:38:16;;;;;;;43.10;29.60;;;5.60;99.90;;;;;;4951056;28;20034;-59
2022/01/18 11:41:02;;;;;;;32.30;29.02;;;6.00;99.90;;;;;;4951603;29;20027;-58
2022/01/18 11:43:42;;;;;;;19.05;16.17;;;6.80;99.90;;;;;;4952138;28;20055;-58
2022/01/18 11:46:32;;;;;;;19.05;15.55;;;7.00;99.90;;;;;;4952190;29;20042;-59
2022/01/18 11:49:02;;;;;;;18.98;16.10;;;6.80;99.90;;;;;;4952413;29;20031;-60
2022/01/18 11:51:44;;;;;;;17.05;14.30;;;7.40;99.90;;;;;;4951277;28;20526;-59
2022/01/18 11:57:21;;;;;;;16.73;14.57;;;7.40;99.90;;;;;;4951210;28;20023;-60
2022/01/18 11:59:47;;;;;;;19.65;13.85;;;7.60;99.90;;;;;;4953158;29;20294;-60
2022/01/18 12:02:29;;;;;;;18.23;13.57;;;7.10;99.90;;;;;;4953481;29;20386;-60
2022/01/18 12:04:57;;;;;;;16.38;13.27;;;7.50;99.90;;;;;;4938453;29;20397;-60
2022/01/18 12:07:36;;;;;;;18.15;13.27;;;7.90;99.90;;;;;;4957258;29;20038;-61
2022/01/18 12:10:25;;;;;;;16.85;13.45;;;8.30;99.90;;;;;;4955076;28;20109;-60
2022/01/18 12:12:52;;;;;;;17.33;12.80;;;8.50;99.90;;;;;;4954451;29;20468;-59
2022/01/18 12:15:26;;;;;;;21.05;12.57;;;8.70;99.90;;;;;;4953271;28;20397;-58
2022/01/18 12:17:53;;;;;;;15.55;11.63;;;8.90;99.90;;;;;;4952715;29;20036;-59
2022/01/18 12:20:48;;;;;;;21.33;13.23;;;9.00;99.90;;;;;;4949121;29;20551;-59
2022/01/18 12:23:14;;;;;;;15.38;12.40;;;8.80;99.90;;;;;;4947671;28;20603;-59
2022/01/18 12:34:27;;;;;;;17.50;11.40;;;8.30;99.90;;;;;;4955335;29;20110;-59
2022/01/18 12:37:39;;;;;;;18.67;12.10;;;8.40;99.90;;;;;;4953987;29;20039;-59
2022/01/18 12:45:11;;;;;;;16.30;11.50;;;8.00;99.90;;;;;;4952509;29;20610;-60
2022/01/18 12:47:42;;;;;;;13.75;11.13;;;8.20;99.90;;;;;;4952186;29;20041;-59
2022/01/18 12:50:13;;;;;;;14.90;11.50;;;8.40;99.90;;;;;;4952679;29;20031;-60
2022/01/18 12:53:06;;;;;;;11.77;10.35;;;8.60;99.90;;;;;;4954951;28;20464;-60
2022/01/18 12:55:45;;;;;;;12.32;9.98;;;8.50;99.90;;;;;;4952526;29;20515;-59
2022/01/18 12:58:28;;;;;;;11.45;9.32;;;8.10;99.90;;;;;;4955469;29;20035;-59
2022/01/18 13:01:06;;;;;;;12.85;10.32;;;8.00;99.90;;;;;;4953751;29;20087;-60
2022/01/18 13:03:35;;;;;;;10.52;9.35;;;7.90;99.90;;;;;;4952038;29;20086;-59
2022/01/18 13:06:09;;;;;;;9.55;7.65;;;8.00;99.90;;;;;;4952486;29;20370;-59
2022/01/18 13:08:49;;;;;;;9.90;8.18;;;7.90;99.90;;;;;;4953793;28;20032;-59
2022/01/18 13:11:20;;;;;;;9.05;7.47;;;8.00;99.90;;;;;;4951473;28;20139;-60
2022/01/18 13:14:29;;;;;;;9.65;8.25;;;8.00;99.90;;;;;;4953621;28;20039;-60
2022/01/18 13:25:06;;;;;;;7.75;6.95;;;8.20;99.90;;;;;;4955988;29;20085;-60
2022/01/18 13:27:46;;;;;;;7.97;6.20;;;8.50;99.90;;;;;;4952036;28;20616;-59
2022/01/18 13:30:23;;;;;;;10.02;6.60;;;8.50;99.90;;;;;;4951532;28;20065;-59
2022/01/18 13:32:51;;;;;;;8.75;7.10;;;8.50;99.90;;;;;;4951814;28;20050;-60
2022/01/18 13:35:24;;;;;;;9.70;6.95;;;8.40;99.90;;;;;;4952232;28;20034;-60
2022/01/18 13:37:50;;;;;;;8.53;6.73;;;8.20;99.90;;;;;;4952547;28;20047;-59
2022/01/18 13:40:17;;;;;;;7.45;6.30;;;8.10;99.90;;;;;;4955475;29;20035;-59
2022/01/18 13:43:15;;;;;;;7.07;6.05;;;8.30;99.90;;;;;;4951297;28;20038;-60
2022/01/18 13:45:43;;;;;;;7.45;6.00;;;8.30;99.90;;;;;;4936553;29;20055;-60
2022/01/18 13:48:10;;;;;;;7.18;5.70;;;8.50;99.90;;;;;;4952943;28;20396;-59
2022/01/18 13:50:39;;;;;;;8.05;6.00;;;8.60;99.90;;;;;;4952064;29;20468;-60
2022/01/18 13:53:12;;;;;;;6.50;5.80;;;8.30;99.90;;;;;;4952832;28;20031;-59
2022/01/18 13:55:45;;;;;;;6.18;5.55;;;8.40;99.90;;;;;;4953989;28;20078;-59
2022/01/18 13:58:10;;;;;;;5.75;5.15;;;8.50;99.90;;;;;;4954237;29;20038;-60
2022/01/18 14:00:36;;;;;;;7.32;5.82;;;8.40;99.90;;;;;;4951328;28;20432;-60
2022/01/18 14:03:02;;;;;;;10.02;6.07;;;8.50;99.90;;;;;;4951114;28;20045;-60
2022/01/18 14:05:28;;;;;;;8.73;5.70;;;8.30;99.90;;;;;;4951349;28;20478;-60
2022/01/18 14:08:10;;;;;;;7.53;5.63;;;8.30;99.90;;;;;;4951543;28;20028;-60
2022/01/18 14:10:35;;;;;;;8.05;5.80;;;8.40;99.90;;;;;;4953842;28;20051;-59
2022/01/18 14:13:02;;;;;;;6.57;5.13;;;8.50;99.90;;;;;;4952757;28;20086;-60
2022/01/18 14:15:39;;;;;;;7.57;4.60;;;8.40;99.90;;;;;;4950760;29;20031;-59
2022/01/18 14:18:05;;;;;;;6.53;5.07;;;8.20;99.90;;;;;;4951422;28;20031;-60
2022/01/18 14:20:32;;;;;;;6.93;5.82;;;8.30;99.90;;;;;;4950861;28;20039;-60
2022/01/18 14:22:59;;;;;;;6.07;4.80;;;8.30;99.90;;;;;;4951074;28;20035;-60
2022/01/18 14:25:31;;;;;;;8.30;6.88;;;8.20;99.90;;;;;;4954038;28;20031;-60
2022/01/18 14:28:11;;;;;;;6.25;4.68;;;8.10;99.90;;;;;;4951678;29;20030;-60